Preview of NWS' New Version of Forecast
This preview is not operational and should not be used for support decisions.

Terminal Aerodrome Forecast (TAF)

Issued by National Weather Service (NWS)

                            
811 
FTUS42 KKEY 201738
TAFMTH
TAF
KMTH 201738Z 2018/2118 13010G20KT P6SM VCSH SCT015 BKN030 OVC080
      TEMPO 2018/2020 2SM SHRA SCT015 BKN025 OVC080=